createdAt,value
2023-03-10T00:01:29.124Z,96.40
2023-03-10T00:03:57.863Z,96.40
2023-03-10T00:06:27.083Z,96.80
2023-03-10T00:08:55.465Z,97.00
2023-03-10T00:11:23.550Z,97.20
2023-03-10T00:13:50.714Z,97.10
2023-03-10T00:16:24.676Z,96.90
2023-03-10T00:18:52.576Z,96.90
2023-03-10T00:21:26.373Z,97.00
2023-03-10T00:23:54.473Z,97.30
2023-03-10T00:26:23.180Z,97.80
2023-03-10T00:28:51.099Z,98.10
2023-03-10T00:31:21.366Z,98.20
2023-03-10T00:33:49.835Z,98.70
2023-03-10T00:36:22.582Z,99.80
2023-03-10T00:38:51.339Z,99.90
2023-03-10T00:41:21.050Z,99.90
2023-03-10T00:43:48.510Z,99.90
2023-03-10T00:46:16.844Z,99.90
2023-03-10T00:48:44.603Z,99.90
2023-03-10T00:51:12.025Z,99.90
2023-03-10T00:53:40.979Z,99.90
2023-03-10T00:56:14.106Z,99.90
2023-03-10T00:58:42.243Z,99.90
2023-03-10T01:01:20.020Z,99.90
2023-03-10T01:03:47.609Z,99.90
2023-03-10T01:06:57.125Z,99.90
2023-03-10T01:09:24.305Z,99.90
2023-03-10T01:11:51.911Z,99.90
2023-03-10T01:14:19.849Z,99.90
2023-03-10T01:16:47.312Z,99.90
2023-03-10T01:19:15.212Z,99.90
2023-03-10T01:21:42.642Z,99.90
2023-03-10T01:24:14.539Z,99.90
2023-03-10T01:26:41.558Z,99.90
2023-03-10T01:29:08.688Z,99.90
2023-03-10T01:31:35.953Z,99.90
2023-03-10T01:34:02.983Z,99.90
2023-03-10T01:36:30.108Z,99.90
2023-03-10T01:38:58.261Z,99.90
2023-03-10T01:41:25.499Z,99.90
2023-03-10T01:43:54.739Z,99.90
2023-03-10T01:46:38.744Z,99.90
2023-03-10T01:49:36.643Z,99.90
2023-03-10T01:52:10.365Z,99.90
2023-03-10T01:54:59.892Z,99.90
2023-03-10T01:57:40.917Z,99.90
2023-03-10T02:00:12.549Z,99.90
2023-03-10T02:02:48.057Z,99.90
2023-03-10T02:05:16.042Z,99.90
2023-03-10T02:07:44.432Z,99.90
2023-03-10T02:10:16.422Z,99.90
2023-03-10T02:12:46.673Z,99.90
2023-03-10T02:15:13.907Z,99.90
2023-03-10T02:18:10.312Z,99.90
2023-03-10T02:21:06.778Z,99.90
2023-03-10T02:23:51.362Z,99.90
2023-03-10T02:27:01.122Z,99.90
2023-03-10T02:29:52.556Z,99.90
2023-03-10T02:32:33.202Z,99.90
2023-03-10T02:35:20.124Z,99.90
2023-03-10T02:38:11.462Z,99.90
2023-03-10T02:41:01.588Z,99.90
2023-03-10T02:43:48.611Z,99.90
2023-03-10T02:46:24.866Z,99.90
2023-03-10T02:49:12.544Z,99.90
2023-03-10T02:51:52.023Z,99.90
2023-03-10T02:54:20.198Z,99.90
2023-03-10T02:57:04.887Z,99.90
2023-03-10T02:59:40.720Z,99.90
2023-03-10T03:02:15.262Z,99.90
2023-03-10T03:04:44.068Z,99.90
2023-03-10T03:07:30.842Z,99.90
2023-03-10T03:10:13.490Z,97.10
2023-03-10T03:15:47.355Z,99.60
2023-03-10T03:18:29.380Z,99.90
2023-03-10T03:24:27.211Z,99.90
2023-03-10T03:27:14.243Z,99.90
2023-03-10T03:29:43.897Z,99.90
2023-03-10T03:32:21.234Z,99.90
2023-03-10T03:34:48.497Z,99.90
2023-03-10T03:37:21.558Z,99.90
2023-03-10T03:39:53.406Z,99.90
2023-03-10T03:42:23.661Z,99.90
2023-03-10T03:44:54.397Z,99.90
2023-03-10T03:47:22.956Z,99.90
2023-03-10T03:50:02.825Z,99.90
2023-03-10T03:52:31.364Z,99.90
2023-03-10T03:55:25.134Z,99.90
2023-03-10T03:58:32.400Z,99.90
2023-03-10T04:01:16.947Z,99.90
2023-03-10T04:06:39.430Z,99.90
2023-03-10T04:09:24.953Z,99.90
2023-03-10T04:12:07.927Z,99.90
2023-03-10T04:15:01.289Z,99.90
2023-03-10T04:17:29.670Z,99.90
2023-03-10T04:20:07.151Z,99.90
2023-03-10T04:22:37.646Z,99.90
2023-03-10T04:25:14.949Z,99.90
2023-03-10T04:28:06.136Z,99.90
2023-03-10T04:31:09.730Z,99.90
2023-03-10T04:34:01.944Z,99.90
2023-03-10T04:36:35.752Z,99.90
2023-03-10T04:39:10.191Z,99.90
2023-03-10T04:42:31.721Z,99.90
2023-03-10T04:48:01.405Z,99.90
2023-03-10T04:50:35.952Z,99.90
2023-03-10T04:53:27.105Z,99.90
2023-03-10T04:55:58.477Z,99.90
2023-03-10T04:58:36.237Z,99.90
2023-03-10T05:01:43.429Z,99.90
2023-03-10T05:04:12.170Z,99.90
2023-03-10T05:06:41.059Z,99.90
2023-03-10T05:09:21.926Z,99.90
2023-03-10T05:11:53.278Z,99.90
2023-03-10T05:14:51.549Z,99.90
2023-03-10T05:17:21.461Z,99.90
2023-03-10T05:20:00.275Z,99.90
2023-03-10T05:22:32.553Z,99.90
2023-03-10T05:24:59.987Z,99.90
2023-03-10T05:27:38.000Z,99.90
2023-03-10T05:30:32.453Z,99.90
2023-03-10T05:33:02.039Z,99.90
2023-03-10T05:35:29.004Z,99.90
2023-03-10T05:37:59.362Z,99.90
2023-03-10T05:40:43.743Z,99.90
2023-03-10T05:43:36.034Z,99.90
2023-03-10T05:46:20.059Z,99.90
2023-03-10T05:48:48.132Z,99.90
2023-03-10T05:51:21.558Z,99.90
2023-03-10T05:54:07.661Z,99.90
2023-03-10T05:56:36.406Z,99.90
2023-03-10T05:59:07.279Z,99.90
2023-03-10T06:01:38.358Z,99.90
2023-03-10T06:04:05.816Z,99.90
2023-03-10T06:06:35.627Z,99.90
2023-03-10T06:09:13.220Z,99.90
2023-03-10T06:11:40.407Z,99.90
2023-03-10T06:14:08.941Z,99.90
2023-03-10T06:16:37.588Z,99.90
2023-03-10T06:19:06.104Z,99.90
2023-03-10T06:21:33.158Z,99.90
2023-03-10T06:24:01.597Z,99.90
2023-03-10T06:26:29.607Z,99.90
2023-03-10T06:28:57.923Z,99.90
2023-03-10T06:31:26.638Z,99.90
2023-03-10T06:34:04.296Z,99.90
2023-03-10T06:36:34.925Z,99.90
2023-03-10T06:39:03.827Z,99.90
2023-03-10T06:41:34.873Z,99.90
2023-03-10T06:44:03.722Z,99.90
2023-03-10T06:46:34.373Z,99.90
2023-03-10T06:49:04.709Z,99.90
2023-03-10T06:51:35.850Z,99.90
2023-03-10T06:54:05.626Z,99.90
2023-03-10T06:56:35.725Z,99.90
2023-03-10T06:59:04.328Z,99.90
2023-03-10T07:01:33.990Z,99.90
2023-03-10T07:04:04.262Z,99.90
2023-03-10T07:06:35.432Z,99.90
2023-03-10T07:09:12.840Z,99.90
2023-03-10T07:11:41.465Z,99.90
2023-03-10T07:14:10.774Z,99.90
2023-03-10T07:16:41.032Z,99.90
2023-03-10T07:19:15.785Z,99.90
2023-03-10T07:21:44.300Z,99.90
2023-03-10T07:24:11.438Z,99.90
2023-03-10T07:26:47.468Z,99.90
2023-03-10T07:29:18.688Z,99.90
2023-03-10T07:31:49.704Z,99.90
2023-03-10T07:34:19.660Z,99.90
2023-03-10T07:36:49.283Z,99.90
2023-03-10T07:39:17.534Z,99.90
2023-03-10T07:41:45.867Z,99.90
2023-03-10T07:44:23.515Z,99.90
2023-03-10T07:46:52.544Z,99.90
2023-03-10T07:49:24.300Z,99.90
2023-03-10T07:51:53.383Z,99.90
2023-03-10T07:54:23.044Z,99.90
2023-03-10T07:56:51.217Z,99.90
2023-03-10T07:59:20.461Z,99.90
2023-03-10T08:01:49.089Z,99.90
2023-03-10T08:04:18.644Z,99.90
2023-03-10T08:06:49.185Z,99.90
2023-03-10T08:09:17.596Z,99.90
2023-03-10T08:11:46.102Z,99.90
2023-03-10T08:14:21.118Z,99.90
2023-03-10T08:16:52.001Z,99.90
2023-03-10T08:19:22.432Z,99.90
2023-03-10T08:21:49.719Z,99.90
2023-03-10T08:24:18.531Z,99.90
2023-03-10T08:26:47.733Z,99.90
2023-03-10T08:29:16.184Z,99.90
2023-03-10T08:31:52.799Z,99.90
2023-03-10T08:34:22.132Z,99.90
2023-03-10T08:36:51.767Z,99.90
2023-03-10T08:39:20.305Z,99.90
2023-03-10T08:41:49.953Z,99.90
2023-03-10T08:44:19.827Z,99.90
2023-03-10T08:46:49.818Z,99.90
2023-03-10T08:49:21.374Z,99.90
2023-03-10T08:51:51.361Z,99.90
2023-03-10T08:54:21.840Z,99.90
2023-03-10T08:56:50.762Z,98.90
2023-03-10T08:59:19.718Z,98.70
2023-03-10T09:01:48.369Z,99.40
2023-03-10T09:04:16.511Z,99.90
2023-03-10T09:06:45.323Z,99.20
2023-03-10T09:09:15.116Z,99.80
2023-03-10T09:11:44.676Z,98.60
2023-03-10T09:14:19.303Z,99.90
2023-03-10T09:16:48.768Z,98.40
2023-03-10T09:19:20.876Z,98.50
2023-03-10T09:21:51.082Z,98.60
2023-03-10T09:24:21.764Z,98.40
2023-03-10T09:26:59.915Z,99.00
2023-03-10T09:29:43.402Z,98.80
2023-03-10T09:32:13.368Z,98.50
2023-03-10T09:34:42.951Z,98.30
2023-03-10T09:37:11.631Z,98.80
2023-03-10T09:39:38.864Z,98.40
2023-03-10T09:42:41.856Z,91.70
2023-03-10T09:45:47.469Z,89.30
2023-03-10T09:48:57.978Z,91.60
2023-03-10T09:51:36.422Z,95.00
2023-03-10T09:54:42.021Z,96.80
2023-03-10T09:57:29.452Z,97.50
2023-03-10T10:00:18.367Z,99.90
2023-03-10T10:02:51.558Z,99.40
2023-03-10T10:05:34.262Z,99.90
2023-03-10T10:08:12.080Z,99.90
2023-03-10T10:10:54.530Z,99.90
2023-03-10T10:13:26.186Z,99.90
2023-03-10T10:16:34.610Z,99.90
2023-03-10T10:19:29.370Z,99.90
2023-03-10T10:22:31.735Z,99.90
2023-03-10T10:25:15.032Z,99.90
2023-03-10T10:27:45.882Z,99.90
2023-03-10T10:30:41.499Z,99.90
2023-03-10T10:33:14.086Z,99.90
2023-03-10T10:35:49.635Z,99.90
2023-03-10T10:38:30.751Z,99.90
2023-03-10T10:41:24.039Z,99.90
2023-03-10T10:43:56.120Z,99.90
2023-03-10T10:46:30.149Z,99.90
2023-03-10T10:49:28.981Z,99.90
2023-03-10T10:52:06.440Z,99.90
2023-03-10T10:54:46.477Z,99.90
2023-03-10T10:57:36.162Z,99.90
2023-03-10T11:00:28.448Z,99.90
2023-03-10T11:03:04.228Z,99.90
2023-03-10T11:05:38.073Z,99.90
2023-03-10T11:08:54.208Z,99.90
2023-03-10T11:11:34.523Z,99.90
2023-03-10T11:14:20.565Z,99.90
2023-03-10T11:17:24.404Z,99.90
2023-03-10T11:20:12.605Z,99.90
2023-03-10T11:23:28.664Z,99.90
2023-03-10T11:26:20.139Z,99.90
2023-03-10T11:29:23.090Z,99.90
2023-03-10T11:32:19.453Z,99.90
2023-03-10T11:34:58.579Z,99.90
2023-03-10T11:37:47.444Z,99.90
2023-03-10T11:40:24.498Z,99.90
2023-03-10T11:43:15.006Z,99.90
2023-03-10T11:45:53.120Z,99.90
2023-03-10T11:48:46.989Z,99.90
2023-03-10T11:51:32.848Z,99.90
2023-03-10T11:54:13.779Z,99.60
2023-03-10T11:56:44.250Z,99.90
2023-03-10T11:59:29.686Z,99.50
2023-03-10T12:02:07.812Z,99.30
2023-03-10T12:05:05.336Z,98.60
2023-03-10T12:07:44.095Z,98.00
2023-03-10T12:10:16.045Z,97.00
2023-03-10T12:12:49.067Z,97.40
2023-03-10T12:15:34.283Z,97.20
2023-03-10T12:18:07.046Z,96.90
2023-03-10T12:20:36.088Z,97.20
2023-03-10T12:23:28.408Z,96.20
2023-03-10T12:25:57.080Z,96.80
2023-03-10T12:28:27.836Z,96.30
2023-03-10T12:31:33.415Z,96.70
2023-03-10T12:34:33.065Z,97.30
2023-03-10T12:37:13.174Z,96.60
2023-03-10T12:39:47.997Z,97.20
2023-03-10T12:42:35.627Z,97.30
2023-03-10T12:45:36.529Z,97.30
2023-03-10T12:48:14.284Z,96.80
2023-03-10T12:51:15.420Z,96.70
2023-03-10T12:54:39.532Z,96.90
2023-03-10T12:57:34.559Z,96.20
2023-03-10T13:00:23.023Z,96.30
2023-03-10T13:03:21.951Z,96.00
2023-03-10T13:06:31.331Z,96.30
2023-03-10T13:09:15.296Z,95.70
2023-03-10T13:11:55.304Z,95.90
2023-03-10T13:14:33.237Z,94.80
2023-03-10T13:17:02.851Z,94.70
2023-03-10T13:19:41.243Z,93.90
2023-03-10T13:22:17.701Z,94.20
2023-03-10T13:25:03.156Z,95.20
2023-03-10T13:27:38.308Z,95.90
2023-03-10T13:30:22.484Z,95.90
2023-03-10T13:33:05.594Z,95.60
2023-03-10T13:35:40.336Z,94.90
2023-03-10T13:38:29.880Z,95.50
2023-03-10T13:41:03.055Z,95.70
2023-03-10T13:43:45.900Z,95.60
2023-03-10T13:46:32.676Z,95.10
2023-03-10T13:49:10.494Z,94.50
2023-03-10T13:51:41.500Z,94.30
2023-03-10T13:54:25.317Z,94.70
2023-03-10T13:56:57.826Z,94.60
2023-03-10T13:59:38.977Z,94.30
2023-03-10T14:02:19.656Z,93.70
2023-03-10T14:04:59.179Z,94.10
2023-03-10T14:07:38.378Z,94.00
2023-03-10T14:10:10.629Z,94.10
2023-03-10T14:12:57.980Z,93.90
2023-03-10T14:15:41.907Z,94.60
2023-03-10T14:18:18.836Z,95.10
2023-03-10T14:20:48.094Z,95.40
2023-03-10T14:23:34.549Z,94.80
2023-03-10T14:26:16.367Z,95.00
2023-03-10T14:28:43.654Z,94.80
2023-03-10T14:31:26.186Z,94.50
2023-03-10T14:33:56.294Z,94.20
2023-03-10T14:36:26.114Z,94.10
2023-03-10T14:38:54.495Z,94.50
2023-03-10T14:41:26.382Z,94.80
2023-03-10T14:43:56.919Z,94.70
2023-03-10T14:46:24.994Z,95.00
2023-03-10T14:49:01.727Z,95.10
2023-03-10T14:51:40.925Z,93.50
2023-03-10T14:54:30.828Z,94.10
2023-03-10T14:57:09.474Z,94.90
2023-03-10T14:59:39.797Z,95.20
2023-03-10T15:02:40.464Z,96.10
2023-03-10T15:05:14.642Z,97.30
2023-03-10T15:07:44.680Z,98.70
2023-03-10T15:10:19.496Z,99.90
2023-03-10T15:12:49.956Z,99.90
2023-03-10T15:15:25.405Z,99.90
2023-03-10T15:17:56.039Z,99.90
2023-03-10T15:20:25.643Z,99.90
2023-03-10T15:22:52.998Z,99.90
2023-03-10T15:25:25.659Z,99.90
2023-03-10T15:27:53.327Z,99.90
2023-03-10T15:30:29.426Z,99.90
2023-03-10T15:32:57.240Z,99.90
2023-03-10T15:35:27.371Z,99.90
2023-03-10T15:38:01.387Z,99.90
2023-03-10T15:40:41.330Z,99.90
2023-03-10T15:43:12.172Z,99.90
2023-03-10T15:45:42.754Z,99.90
2023-03-10T15:48:12.335Z,99.90
2023-03-10T15:50:47.954Z,99.90
2023-03-10T15:53:17.014Z,99.90
2023-03-10T15:55:45.712Z,99.90
2023-03-10T15:58:14.954Z,99.90
2023-03-10T16:00:44.818Z,99.90
2023-03-10T16:03:18.145Z,99.90
2023-03-10T16:05:48.636Z,99.90
2023-03-10T16:08:22.026Z,99.90
2023-03-10T16:11:01.951Z,99.90
2023-03-10T16:13:32.091Z,99.90
2023-03-10T16:16:05.932Z,99.90
2023-03-10T16:18:33.918Z,99.90
2023-03-10T16:21:12.699Z,99.90
2023-03-10T16:23:41.158Z,99.90
2023-03-10T16:26:20.011Z,99.90
2023-03-10T16:29:04.527Z,99.90
2023-03-10T16:31:33.163Z,99.90
2023-03-10T16:34:00.371Z,99.90
2023-03-10T16:36:32.692Z,99.90
2023-03-10T16:39:00.107Z,99.90
2023-03-10T16:41:29.877Z,99.90
2023-03-10T16:43:59.838Z,99.90
2023-03-10T16:46:31.152Z,99.90
2023-03-10T16:49:06.166Z,99.90
2023-03-10T16:51:41.187Z,99.90
2023-03-10T16:54:12.542Z,99.90
2023-03-10T16:56:43.647Z,99.90
2023-03-10T16:59:24.990Z,99.90
2023-03-10T17:01:53.182Z,99.90
2023-03-10T17:04:21.592Z,99.90
2023-03-10T17:06:50.884Z,99.90
2023-03-10T17:09:19.337Z,99.90
2023-03-10T17:11:54.961Z,99.90
2023-03-10T17:14:27.442Z,99.90
2023-03-10T17:16:56.457Z,99.90
2023-03-10T17:19:32.635Z,99.90
2023-03-10T17:24:44.706Z,99.90
2023-03-10T17:27:14.159Z,99.90
2023-03-10T17:29:44.005Z,99.90
2023-03-10T17:32:12.366Z,99.90
2023-03-10T17:34:45.888Z,99.90
2023-03-10T17:37:16.344Z,99.90
2023-03-10T17:39:46.528Z,99.90
2023-03-10T17:42:15.845Z,99.90
2023-03-10T17:44:46.866Z,99.90
2023-03-10T17:47:15.334Z,99.90
2023-03-10T17:49:46.272Z,99.90
2023-03-10T17:52:31.411Z,99.90
2023-03-10T17:55:01.837Z,99.90
2023-03-10T17:57:29.987Z,99.90
2023-03-10T17:59:59.371Z,99.90
2023-03-10T18:02:28.008Z,99.90
2023-03-10T18:04:58.023Z,99.90
2023-03-10T18:07:28.649Z,99.90
2023-03-10T18:10:06.937Z,99.90
2023-03-10T18:12:35.289Z,99.90
2023-03-10T18:15:07.023Z,99.90
2023-03-10T18:17:34.158Z,99.90
2023-03-10T18:20:08.821Z,99.90
2023-03-10T18:22:38.966Z,99.90
2023-03-10T18:25:07.804Z,99.90
2023-03-10T18:27:37.676Z,99.90
2023-03-10T18:30:08.298Z,99.90
2023-03-10T18:32:36.943Z,99.90
2023-03-10T18:35:06.313Z,99.90
2023-03-10T18:37:35.949Z,99.90
2023-03-10T18:40:10.271Z,99.90
2023-03-10T18:42:39.665Z,99.90
2023-03-10T18:45:19.552Z,99.90
2023-03-10T18:47:47.918Z,99.90
2023-03-10T18:50:16.716Z,99.90
2023-03-10T18:52:47.480Z,99.90
2023-03-10T18:55:15.771Z,99.90
2023-03-10T18:57:45.007Z,99.90
2023-03-10T19:00:16.056Z,99.90
2023-03-10T19:02:45.019Z,99.90
2023-03-10T19:05:17.862Z,99.90
2023-03-10T19:07:48.155Z,99.90
2023-03-10T19:10:18.845Z,99.90
2023-03-10T19:12:47.125Z,99.90
2023-03-10T19:15:24.701Z,99.90
2023-03-10T19:17:55.010Z,99.90
2023-03-10T19:20:34.095Z,99.90
2023-03-10T19:23:03.243Z,99.90
2023-03-10T19:25:31.640Z,99.90
2023-03-10T19:27:58.834Z,99.90
2023-03-10T19:30:29.401Z,99.90
2023-03-10T19:32:57.201Z,99.90
2023-03-10T19:35:26.719Z,99.90
2023-03-10T19:37:56.417Z,99.90
2023-03-10T19:40:27.176Z,99.90
2023-03-10T19:42:57.979Z,99.90
2023-03-10T19:45:29.134Z,99.90
2023-03-10T19:47:59.766Z,99.90
2023-03-10T19:50:33.750Z,99.90
2023-03-10T19:53:03.494Z,99.90
2023-03-10T19:55:32.798Z,99.90
2023-03-10T19:58:09.597Z,99.90
2023-03-10T20:00:37.999Z,99.90
2023-03-10T20:03:08.042Z,99.90
2023-03-10T20:05:41.415Z,99.90
2023-03-10T20:08:11.528Z,99.90
2023-03-10T20:10:40.180Z,99.90
2023-03-10T20:13:09.000Z,99.90
2023-03-10T20:15:41.004Z,99.90
2023-03-10T20:18:11.922Z,99.90
2023-03-10T20:20:43.896Z,99.90
2023-03-10T20:23:11.150Z,99.90
2023-03-10T20:25:39.617Z,99.90
2023-03-10T20:28:16.020Z,99.90
2023-03-10T20:30:48.889Z,99.90
2023-03-10T20:33:20.440Z,99.90
2023-03-10T20:35:56.196Z,99.90
2023-03-10T20:38:23.480Z,99.90
2023-03-10T20:40:53.554Z,99.90
2023-03-10T20:43:22.477Z,99.90
2023-03-10T20:46:01.741Z,99.90
2023-03-10T20:48:30.480Z,99.90
2023-03-10T20:51:07.063Z,99.90
2023-03-10T20:53:44.479Z,99.90
2023-03-10T20:56:15.793Z,99.90
2023-03-10T20:58:52.657Z,99.90
2023-03-10T21:01:22.060Z,99.90
2023-03-10T21:03:57.226Z,99.90
2023-03-10T21:06:28.677Z,99.90
2023-03-10T21:09:06.457Z,99.90
2023-03-10T21:11:36.332Z,99.90
2023-03-10T21:14:03.317Z,99.90
2023-03-10T21:16:42.009Z,99.90
2023-03-10T21:19:10.502Z,99.90
2023-03-10T21:21:47.437Z,99.90
2023-03-10T21:24:17.871Z,99.90
2023-03-10T21:26:46.724Z,99.90
2023-03-10T21:29:13.729Z,99.90
2023-03-10T21:31:42.017Z,99.90
2023-03-10T21:34:10.260Z,99.90
2023-03-10T21:36:39.121Z,99.90
2023-03-10T21:39:16.465Z,99.90
2023-03-10T21:41:52.465Z,99.90
2023-03-10T21:44:22.760Z,99.90
2023-03-10T21:46:51.436Z,99.90
2023-03-10T21:49:22.000Z,99.90
2023-03-10T21:51:59.566Z,99.90
2023-03-10T21:54:32.170Z,99.90
2023-03-10T21:57:02.884Z,99.90
2023-03-10T21:59:33.122Z,99.90
2023-03-10T22:02:02.552Z,99.90
2023-03-10T22:04:31.061Z,99.90
2023-03-10T22:06:58.362Z,99.90
2023-03-10T22:09:27.405Z,99.90
2023-03-10T22:11:55.784Z,99.90
2023-03-10T22:14:26.086Z,99.90
2023-03-10T22:16:54.159Z,99.90
2023-03-10T22:19:24.604Z,99.90
2023-03-10T22:22:00.804Z,99.90
2023-03-10T22:24:29.599Z,99.90
2023-03-10T22:26:59.421Z,99.90
2023-03-10T22:29:27.649Z,99.90
2023-03-10T22:31:56.582Z,99.90
2023-03-10T22:34:26.459Z,99.90
2023-03-10T22:36:56.319Z,99.90
2023-03-10T22:39:25.166Z,99.90
2023-03-10T22:41:53.704Z,99.90
2023-03-10T22:44:24.335Z,99.90
2023-03-10T22:46:55.070Z,99.90
2023-03-10T22:49:32.746Z,99.90
2023-03-10T22:51:59.744Z,99.90
2023-03-10T22:54:37.869Z,99.90
2023-03-10T22:57:06.302Z,99.90
2023-03-10T22:59:34.925Z,99.90
2023-03-10T23:02:05.037Z,99.90
2023-03-10T23:04:35.620Z,99.90
2023-03-10T23:07:02.862Z,99.90
2023-03-10T23:09:39.785Z,99.90
2023-03-10T23:12:10.424Z,99.90
2023-03-10T23:14:47.583Z,99.90
2023-03-10T23:17:18.663Z,99.90
2023-03-10T23:19:51.306Z,99.90
2023-03-10T23:22:20.227Z,99.90
2023-03-10T23:24:47.666Z,99.90
2023-03-10T23:27:16.812Z,99.90
2023-03-10T23:29:48.814Z,99.90
2023-03-10T23:32:17.430Z,99.90
2023-03-10T23:34:48.564Z,99.90
2023-03-10T23:37:16.566Z,99.90
2023-03-10T23:39:44.932Z,99.90
2023-03-10T23:42:14.879Z,99.90
2023-03-10T23:44:43.521Z,99.90
2023-03-10T23:47:12.181Z,99.90
2023-03-10T23:49:40.548Z,99.90
2023-03-10T23:52:10.380Z,99.90
2023-03-10T23:54:39.360Z,99.90
2023-03-10T23:57:09.470Z,99.90
2023-03-10T23:59:47.661Z,99.90
